Time;durP1;ratioP1;P1;durP2;ratioP2;P2;SDS_P1;SDS_P2;PMS_P1;PMS_P2;Temp;Humidity;BMP_temperature;BMP_pressure;BME280_temperature;BME280_humidity;BME280_pressure;Samples;Min_cycle;Max_cycle;Signal;HPM_P1;HPM_P2
2024/04/15 00:01:54;;;;;;;11.23;6.53;;;22.70;73.50;;;;;;5447698;26;20296;-75
2024/04/15 00:04:22;;;;;;;6.63;5.00;;;22.80;71.50;;;;;;5430587;26;20233;-76
2024/04/15 00:06:51;;;;;;;5.67;4.30;;;22.50;69.20;;;;;;5445334;26;20340;-73
2024/04/15 00:09:19;;;;;;;8.00;4.23;;;22.70;68.60;;;;;;5438927;26;20366;-74
2024/04/15 00:11:47;;;;;;;6.90;3.90;;;22.80;68.50;;;;;;5444038;26;20236;-76
2024/04/15 00:14:17;;;;;;;9.30;3.87;;;22.90;68.30;;;;;;5445787;26;20236;-73
2024/04/15 00:16:45;;;;;;;5.17;2.83;;;22.80;68.20;;;;;;5434886;26;20777;-74
2024/04/15 00:19:12;;;;;;;9.00;4.00;;;23.00;68.50;;;;;;5435346;26;20244;-74
2024/04/15 00:21:42;;;;;;;6.40;2.93;;;23.20;66.90;;;;;;5448261;26;20356;-74
2024/04/15 00:24:10;;;;;;;6.37;2.90;;;23.20;64.60;;;;;;5434159;26;20300;-75
2024/04/15 00:26:37;;;;;;;6.37;2.90;;;23.30;62.80;;;;;;5443668;26;20243;-77
2024/04/15 00:29:05;;;;;;;7.83;2.90;;;23.40;63.50;;;;;;5443842;26;20332;-74
2024/04/15 00:31:33;;;;;;;7.43;3.10;;;23.60;64.30;;;;;;5445196;26;20240;-74
2024/04/15 00:34:00;;;;;;;7.97;3.27;;;23.70;64.10;;;;;;5430188;26;20361;-75
2024/04/15 00:36:28;;;;;;;10.07;3.20;;;23.80;63.10;;;;;;5438113;26;20241;-73
2024/04/15 00:38:55;;;;;;;11.27;2.83;;;23.70;61.40;;;;;;5438820;26;20279;-73
2024/04/15 00:41:24;;;;;;;15.13;2.77;;;23.70;60.20;;;;;;5441915;26;20291;-76
2024/04/15 00:43:51;;;;;;;6.07;2.73;;;23.80;57.40;;;;;;5439606;26;20295;-73
2024/04/15 00:46:21;;;;;;;9.33;2.80;;;23.90;58.00;;;;;;5438308;26;20239;-74
2024/04/15 00:48:49;;;;;;;6.93;2.43;;;24.00;58.30;;;;;;5444464;26;20236;-73
2024/04/15 00:51:17;;;;;;;7.50;2.77;;;24.10;57.20;;;;;;5444740;26;20232;-75
2024/04/15 00:53:50;;;;;;;6.67;3.00;;;24.10;55.70;;;;;;5446692;26;20302;-74
2024/04/15 00:56:20;;;;;;;7.63;3.00;;;24.30;54.70;;;;;;5438734;26;20358;-73
2024/04/15 00:58:48;;;;;;;4.30;2.60;;;24.30;53.70;;;;;;5441278;26;20310;-73
2024/04/15 01:01:19;;;;;;;8.17;2.70;;;24.60;52.40;;;;;;5450825;26;20247;-72
2024/04/15 01:03:47;;;;;;;6.23;2.97;;;24.60;51.30;;;;;;5433905;26;20249;-73
2024/04/15 01:06:15;;;;;;;5.87;2.73;;;24.80;51.10;;;;;;5438334;26;20730;-74
2024/04/15 01:08:44;;;;;;;4.77;2.70;;;24.70;50.60;;;;;;5442616;26;20345;-73
2024/04/15 01:11:13;;;;;;;5.53;2.70;;;24.80;50.30;;;;;;5445438;26;20239;-74
2024/04/15 01:13:41;;;;;;;8.93;2.97;;;24.90;49.40;;;;;;5437676;26;20271;-74
2024/04/15 01:16:09;;;;;;;6.30;2.87;;;24.80;48.90;;;;;;5440480;26;20305;-74
2024/04/15 01:18:36;;;;;;;4.93;2.70;;;24.90;50.10;;;;;;5440639;26;20355;-74
2024/04/15 01:21:04;;;;;;;9.17;3.23;;;25.20;50.40;;;;;;5444548;26;20256;-76
2024/04/15 01:23:35;;;;;;;5.97;2.90;;;25.30;49.70;;;;;;5433784;26;20791;-75
2024/04/15 01:26:05;;;;;;;4.03;2.60;;;25.40;50.60;;;;;;5452257;26;20320;-76
2024/04/15 01:28:32;;;;;;;6.47;2.80;;;25.50;51.10;;;;;;5443266;26;20302;-74
2024/04/15 01:31:00;;;;;;;9.77;4.17;;;25.50;49.70;;;;;;5446071;26;20297;-74
2024/04/15 01:33:27;;;;;;;4.43;3.20;;;25.50;48.40;;;;;;5444995;26;20454;-74
2024/04/15 01:35:54;;;;;;;8.17;2.70;;;25.50;47.60;;;;;;5445487;26;20278;-77
2024/04/15 01:38:25;;;;;;;3.67;2.87;;;25.60;47.10;;;;;;5446830;26;20599;-75
2024/04/15 01:40:53;;;;;;;4.37;2.90;;;25.70;48.00;;;;;;5485658;25;20271;-73
2024/04/15 01:43:20;;;;;;;5.40;2.57;;;26.00;48.30;;;;;;5447132;26;20754;-75
2024/04/15 01:45:49;;;;;;;6.40;3.13;;;26.30;48.40;;;;;;5442085;26;20232;-73
2024/04/15 01:48:16;;;;;;;6.77;3.40;;;26.10;46.50;;;;;;5436111;26;20236;-73
2024/04/15 01:50:44;;;;;;;9.83;2.70;;;26.10;45.90;;;;;;5440217;26;20241;-72
2024/04/15 01:53:11;;;;;;;5.37;3.07;;;26.40;46.40;;;;;;5437387;26;20243;-74
2024/04/15 01:55:39;;;;;;;5.97;2.63;;;26.50;46.20;;;;;;5437901;26;20279;-74
2024/04/15 01:58:06;;;;;;;7.10;2.83;;;26.80;46.60;;;;;;5450482;26;20244;-74
2024/04/15 02:00:34;;;;;;;7.13;2.83;;;26.80;47.50;;;;;;5428609;26;20275;-73
2024/04/15 02:03:02;;;;;;;5.77;2.90;;;26.80;47.10;;;;;;5447232;26;20248;-74
2024/04/15 02:05:29;;;;;;;7.83;3.03;;;26.50;48.70;;;;;;5438647;26;20730;-74
2024/04/15 02:07:57;;;;;;;6.00;3.23;;;26.60;48.80;;;;;;5442893;26;20278;-74
2024/04/15 02:10:25;;;;;;;8.17;2.50;;;26.60;47.90;;;;;;5449664;26;20243;-76
2024/04/15 02:12:53;;;;;;;7.50;3.07;;;27.00;47.10;;;;;;5450743;26;20228;-73
2024/04/15 02:15:22;;;;;;;7.93;2.80;;;26.80;46.90;;;;;;5415650;26;20639;-75
2024/04/15 02:17:49;;;;;;;5.17;3.03;;;26.80;47.00;;;;;;5434771;26;20313;-75
2024/04/15 02:20:19;;;;;;;7.53;2.73;;;27.20;47.70;;;;;;5431588;26;20279;-74
2024/04/15 02:22:48;;;;;;;6.27;2.70;;;27.50;48.50;;;;;;5442588;26;20232;-72
2024/04/15 02:25:15;;;;;;;3.97;2.77;;;27.90;47.20;;;;;;5442660;26;20352;-73
2024/04/15 02:27:43;;;;;;;5.00;2.80;;;27.60;46.30;;;;;;5445639;26;20232;-73
2024/04/15 02:30:11;;;;;;;7.60;3.17;;;27.70;47.70;;;;;;5442593;26;20253;-73
2024/04/15 02:32:38;;;;;;;6.27;2.87;;;27.80;45.40;;;;;;5433271;26;20404;-72
2024/04/15 02:35:06;;;;;;;4.53;2.57;;;27.80;45.00;;;;;;5434517;26;20243;-73
2024/04/15 02:37:34;;;;;;;7.93;2.90;;;27.80;45.80;;;;;;5441013;26;20232;-73
2024/04/15 02:40:01;;;;;;;5.73;2.77;;;27.80;45.30;;;;;;5439255;26;20357;-73
2024/04/15 02:42:31;;;;;;;6.80;2.63;;;27.30;45.90;;;;;;5448407;26;20764;-75
2024/04/15 02:44:59;;;;;;;8.93;3.70;;;27.80;45.90;;;;;;5450211;26;20339;-73
2024/04/15 02:47:26;;;;;;;4.37;2.90;;;28.20;45.40;;;;;;5449242;26;20259;-73
2024/04/15 02:49:54;;;;;;;6.73;2.93;;;28.60;44.10;;;;;;5446281;26;20734;-73
2024/04/15 02:52:21;;;;;;;4.13;2.83;;;28.40;44.10;;;;;;5451644;26;20240;-74
2024/04/15 02:54:49;;;;;;;12.27;3.13;;;28.40;44.40;;;;;;5446810;26;20252;-74
2024/04/15 02:57:16;;;;;;;4.53;3.03;;;28.60;44.20;;;;;;5445140;26;20287;-74
2024/04/15 02:59:47;;;;;;;6.13;3.37;;;28.60;43.30;;;;;;5443153;26;20233;-73
2024/04/15 03:02:14;;;;;;;5.93;2.90;;;29.10;43.20;;;;;;5439719;26;20294;-73
2024/04/15 03:04:43;;;;;;;6.23;2.90;;;29.40;41.70;;;;;;5447592;26;20371;-74
2024/04/15 03:07:10;;;;;;;6.77;2.83;;;29.30;42.20;;;;;;5451225;26;20267;-74
2024/04/15 03:09:37;;;;;;;7.33;2.80;;;29.60;40.00;;;;;;5448043;26;20337;-74
2024/04/15 03:12:05;;;;;;;6.60;3.10;;;29.20;39.70;;;;;;5449695;26;20228;-75
2024/04/15 03:14:39;;;;;;;7.18;2.70;;;29.00;40.70;;;;;;5450858;26;20267;-75
2024/04/15 03:17:07;;;;;;;9.63;3.38;;;29.50;41.10;;;;;;5450256;26;20240;-73
2024/04/15 03:19:34;;;;;;;7.33;3.37;;;29.50;43.10;;;;;;5452279;26;20566;-74
2024/04/15 03:22:02;;;;;;;14.53;3.50;;;29.30;43.50;;;;;;5447330;26;20244;-75
2024/04/15 03:24:29;;;;;;;11.57;3.60;;;28.80;44.50;;;;;;5446523;26;20379;-77
2024/04/15 03:26:59;;;;;;;6.80;3.50;;;29.30;43.60;;;;;;5446379;26;20320;-73
2024/04/15 03:29:26;;;;;;;7.57;3.60;;;29.60;42.30;;;;;;5450919;26;20232;-71
2024/04/15 03:31:53;;;;;;;7.72;3.63;;;29.30;42.20;;;;;;5451504;26;20274;-74
2024/04/15 03:34:20;;;;;;;6.63;3.30;;;29.10;42.90;;;;;;5451179;26;20563;-74
2024/04/15 03:36:48;;;;;;;7.03;3.40;;;29.00;42.00;;;;;;5443536;26;20347;-74
2024/04/15 03:39:15;;;;;;;9.15;3.40;;;29.10;41.50;;;;;;5452745;26;20730;-72
2024/04/15 03:41:42;;;;;;;6.67;3.47;;;29.30;41.20;;;;;;5449907;26;20297;-74
2024/04/15 03:44:10;;;;;;;16.00;3.28;;;29.80;40.60;;;;;;5452306;26;20235;-74
2024/04/15 03:46:37;;;;;;;5.13;3.47;;;30.20;39.90;;;;;;5451824;26;20228;-74
2024/04/15 03:49:04;;;;;;;9.60;3.63;;;29.70;40.00;;;;;;5452334;26;20463;-74
2024/04/15 03:51:32;;;;;;;7.53;3.47;;;29.50;40.10;;;;;;5450227;26;20730;-71
2024/04/15 03:53:59;;;;;;;6.78;3.35;;;28.90;42.50;;;;;;5451557;26;20232;-73
2024/04/15 03:56:26;;;;;;;5.78;2.75;;;28.80;41.20;;;;;;5452194;26;20316;-72
2024/04/15 03:58:57;;;;;;;6.13;3.28;;;29.20;41.20;;;;;;5445768;26;20243;-72
2024/04/15 04:01:24;;;;;;;5.20;3.22;;;29.50;40.60;;;;;;5448579;26;20232;-73
2024/04/15 04:03:51;;;;;;;6.88;2.80;;;29.30;40.30;;;;;;5446607;26;20236;-74
2024/04/15 04:06:19;;;;;;;6.82;2.75;;;29.30;41.40;;;;;;5441506;26;20366;-72
2024/04/15 04:08:46;;;;;;;5.75;3.05;;;29.60;41.60;;;;;;5445376;26;20234;-74
2024/04/15 04:11:13;;;;;;;7.55;3.30;;;29.00;42.60;;;;;;5439078;26;20282;-73
2024/04/15 04:13:41;;;;;;;5.53;2.90;;;29.30;42.70;;;;;;5446953;26;20236;-72
2024/04/15 04:16:12;;;;;;;5.75;2.65;;;28.90;43.30;;;;;;5440230;26;20232;-73
2024/04/15 04:18:45;;;;;;;6.00;2.78;;;29.20;44.30;;;;;;5440460;26;20254;-73
2024/04/15 04:21:15;;;;;;;6.00;2.20;;;29.60;43.60;;;;;;5443091;26;20308;-74
2024/04/15 04:23:43;;;;;;;5.40;2.65;;;29.10;44.10;;;;;;5440578;26;20279;-73
2024/04/15 04:26:10;;;;;;;6.65;2.58;;;29.00;44.90;;;;;;5445039;26;20235;-73
2024/04/15 04:28:37;;;;;;;4.22;2.30;;;28.80;45.60;;;;;;5432313;26;20332;-72
2024/04/15 04:31:05;;;;;;;6.83;2.50;;;28.60;45.60;;;;;;5443095;26;20240;-70
2024/04/15 04:33:33;;;;;;;8.53;2.57;;;28.30;46.20;;;;;;5443124;26;20243;-73
2024/04/15 04:36:01;;;;;;;5.27;2.57;;;29.00;44.50;;;;;;5433762;26;20248;-72
2024/04/15 04:38:29;;;;;;;7.03;2.50;;;28.60;45.30;;;;;;5438585;26;20772;-76
2024/04/15 04:40:58;;;;;;;3.80;2.53;;;28.10;46.50;;;;;;5443635;26;20370;-73
2024/04/15 04:43:26;;;;;;;8.43;3.03;;;28.10;46.40;;;;;;5443846;26;20298;-72
2024/04/15 04:45:54;;;;;;;4.70;2.67;;;28.10;46.30;;;;;;5436177;26;20698;-73
2024/04/15 04:48:21;;;;;;;3.00;2.47;;;27.90;46.80;;;;;;5437805;26;20271;-73
2024/04/15 04:50:50;;;;;;;5.70;2.83;;;28.10;46.40;;;;;;5441274;26;20282;-73
2024/04/15 04:53:19;;;;;;;5.67;2.53;;;28.80;44.80;;;;;;5445377;26;20279;-74
2024/04/15 04:55:50;;;;;;;5.60;2.37;;;29.00;45.00;;;;;;5441203;26;20323;-74
2024/04/15 04:58:17;;;;;;;4.60;2.73;;;28.70;45.80;;;;;;5437895;26;20624;-74
2024/04/15 05:00:45;;;;;;;4.13;2.57;;;28.80;45.30;;;;;;5442177;26;20237;-75
2024/04/15 05:03:12;;;;;;;7.27;2.57;;;28.60;45.00;;;;;;5442428;26;20316;-72
2024/04/15 05:05:39;;;;;;;11.53;2.67;;;28.60;45.50;;;;;;5437724;26;20276;-73
2024/04/15 05:08:07;;;;;;;5.13;2.53;;;28.10;46.70;;;;;;5438995;26;20337;-72
2024/04/15 05:10:37;;;;;;;5.67;2.60;;;27.80;47.00;;;;;;5438622;26;20266;-71
2024/04/15 05:13:04;;;;;;;5.77;2.90;;;27.80;46.70;;;;;;5435844;26;20795;-71
2024/04/15 05:15:31;;;;;;;7.77;2.80;;;27.60;47.60;;;;;;5444392;26;20286;-73
2024/04/15 05:17:59;;;;;;;4.80;2.67;;;27.10;49.50;;;;;;5436502;26;20278;-70
2024/04/15 05:20:26;;;;;;;8.30;2.57;;;27.30;49.70;;;;;;5436023;26;20348;-73
2024/04/15 05:22:53;;;;;;;5.00;2.23;;;27.70;49.00;;;;;;5430203;26;20229;-72
2024/04/15 05:25:21;;;;;;;6.50;2.60;;;27.80;49.10;;;;;;5436491;26;20240;-72
2024/04/15 05:27:48;;;;;;;6.37;2.37;;;27.90;49.00;;;;;;5438051;26;20232;-72
2024/04/15 05:30:16;;;;;;;3.23;2.27;;;27.80;47.70;;;;;;5495743;26;20336;-72
2024/04/15 05:32:43;;;;;;;7.03;2.40;;;27.70;48.60;;;;;;5429583;26;20334;-73
2024/04/15 05:35:10;;;;;;;4.37;2.73;;;27.70;47.60;;;;;;5436192;26;20731;-72
2024/04/15 05:37:38;;;;;;;5.27;2.63;;;27.70;47.90;;;;;;5443277;26;20609;-72
2024/04/15 05:40:06;;;;;;;6.63;2.50;;;27.30;50.10;;;;;;5440003;26;20660;-73
2024/04/15 05:42:33;;;;;;;5.93;2.23;;;27.80;49.40;;;;;;5438380;26;20236;-73
2024/04/15 05:45:00;;;;;;;5.53;2.80;;;27.40;50.20;;;;;;5451147;26;20240;-72
2024/04/15 05:47:28;;;;;;;4.03;2.17;;;26.90;51.30;;;;;;5444602;26;20247;-73
2024/04/15 05:49:55;;;;;;;7.93;2.57;;;27.20;50.90;;;;;;5445710;26;20262;-72
2024/04/15 05:52:22;;;;;;;3.73;2.27;;;27.40;50.80;;;;;;5444065;26;20236;-72
2024/04/15 05:54:50;;;;;;;7.70;2.60;;;26.90;50.80;;;;;;5446896;26;20278;-72
2024/04/15 05:57:17;;;;;;;6.53;2.50;;;27.00;51.20;;;;;;5444915;26;20260;-72
2024/04/15 05:59:47;;;;;;;4.43;2.10;;;27.30;51.40;;;;;;5441543;26;20321;-72
2024/04/15 06:02:18;;;;;;;4.67;2.40;;;27.60;49.90;;;;;;5445151;26;20248;-73
2024/04/15 06:04:48;;;;;;;6.60;2.60;;;27.40;50.20;;;;;;5446147;26;20236;-73
2024/04/15 06:07:15;;;;;;;4.10;2.03;;;27.70;48.80;;;;;;5448719;26;20375;-74
2024/04/15 06:09:42;;;;;;;4.70;2.30;;;28.00;48.10;;;;;;5445342;26;20271;-72
2024/04/15 06:12:10;;;;;;;5.37;2.27;;;28.10;47.70;;;;;;5445000;26;20240;-72
2024/04/15 06:14:37;;;;;;;5.93;2.30;;;27.70;48.10;;;;;;5437779;26;20244;-73
2024/04/15 06:17:05;;;;;;;3.63;2.30;;;27.80;48.70;;;;;;5451925;26;20275;-72
2024/04/15 06:19:33;;;;;;;3.97;2.10;;;28.40;47.30;;;;;;5453185;26;20258;-73
2024/04/15 06:22:01;;;;;;;4.93;2.20;;;28.10;47.20;;;;;;5440542;26;20247;-73
2024/04/15 06:24:30;;;;;;;4.17;2.40;;;28.20;46.00;;;;;;5440066;26;20337;-73
2024/04/15 06:26:58;;;;;;;7.43;2.40;;;27.90;46.80;;;;;;5434970;26;20294;-72
2024/04/15 06:29:29;;;;;;;3.37;2.20;;;28.40;46.80;;;;;;5450161;26;20311;-72
2024/04/15 06:31:57;;;;;;;3.77;2.20;;;28.30;45.70;;;;;;5445306;26;20286;-73
2024/04/15 06:34:26;;;;;;;9.63;2.47;;;27.30;47.90;;;;;;5413269;26;20753;-72
2024/04/15 06:36:55;;;;;;;3.83;2.20;;;26.50;50.00;;;;;;5434277;26;20626;-73
2024/04/15 06:39:23;;;;;;;3.77;2.43;;;26.00;51.10;;;;;;5436137;26;20311;-73
2024/04/15 06:41:50;;;;;;;4.27;2.73;;;25.50;52.80;;;;;;5441262;26;20267;-72
2024/04/15 06:44:18;;;;;;;3.17;2.20;;;25.10;53.70;;;;;;5442168;26;20746;-73
2024/04/15 06:46:45;;;;;;;6.63;3.10;;;24.80;55.20;;;;;;5440322;26;20254;-72
2024/04/15 06:49:13;;;;;;;8.13;2.70;;;24.50;56.00;;;;;;5447169;26;20232;-73
2024/04/15 06:51:40;;;;;;;6.57;2.60;;;24.30;56.70;;;;;;5439767;26;20233;-71
2024/04/15 06:54:09;;;;;;;4.93;3.07;;;24.30;57.50;;;;;;5440508;26;20236;-72
2024/04/15 06:56:37;;;;;;;4.67;2.80;;;24.00;58.20;;;;;;5440814;26;20337;-73
2024/04/15 06:59:04;;;;;;;8.20;3.00;;;23.90;58.90;;;;;;5449447;26;20236;-74
2024/04/15 07:01:32;;;;;;;4.97;2.40;;;23.90;59.40;;;;;;5445962;26;20275;-73
2024/04/15 07:03:59;;;;;;;4.97;2.50;;;23.90;59.60;;;;;;5443191;26;20244;-72
2024/04/15 07:06:26;;;;;;;5.30;2.60;;;23.80;59.70;;;;;;5451123;26;20573;-73
2024/04/15 07:08:54;;;;;;;4.90;2.83;;;23.70;60.80;;;;;;5450103;26;20227;-73
2024/04/15 07:11:21;;;;;;;10.50;2.93;;;23.50;61.20;;;;;;5443719;26;20241;-72
2024/04/15 07:13:49;;;;;;;4.73;2.40;;;23.50;61.70;;;;;;5448883;26;20714;-73
2024/04/15 07:16:16;;;;;;;5.07;2.50;;;23.40;62.30;;;;;;5451266;26;20279;-73
2024/04/15 07:18:44;;;;;;;5.13;2.60;;;23.40;62.30;;;;;;5451323;26;20340;-71
2024/04/15 07:21:11;;;;;;;8.20;3.00;;;23.30;62.50;;;;;;5451126;26;20228;-73
2024/04/15 07:23:39;;;;;;;4.33;2.97;;;23.20;63.50;;;;;;5445582;26;20281;-73
2024/04/15 07:26:06;;;;;;;6.73;3.17;;;23.10;63.70;;;;;;5449925;26;20232;-73
2024/04/15 07:28:33;;;;;;;3.73;2.47;;;23.00;63.80;;;;;;5449858;26;20760;-73
2024/04/15 07:31:02;;;;;;;8.10;3.00;;;22.80;64.40;;;;;;5451076;26;20868;-73
2024/04/15 07:33:30;;;;;;;3.17;2.43;;;22.80;65.00;;;;;;5448296;26;20349;-72
2024/04/15 07:35:59;;;;;;;8.27;2.87;;;22.70;65.20;;;;;;5449423;26;20228;-71
2024/04/15 07:38:27;;;;;;;4.50;2.90;;;22.60;65.60;;;;;;5451685;26;20271;-73
2024/04/15 07:40:58;;;;;;;7.53;3.07;;;22.50;66.10;;;;;;5450618;26;20228;-74
2024/04/15 07:43:26;;;;;;;6.73;2.83;;;22.40;66.70;;;;;;5448027;26;20228;-73
2024/04/15 07:45:53;;;;;;;8.13;3.43;;;22.30;67.40;;;;;;5450421;26;20572;-73
2024/04/15 07:48:21;;;;;;;6.00;3.40;;;22.30;67.90;;;;;;5449364;26;20690;-72
2024/04/15 07:50:48;;;;;;;3.90;3.07;;;22.30;68.20;;;;;;5450529;26;20232;-73
2024/04/15 07:53:15;;;;;;;6.27;3.40;;;22.10;68.80;;;;;;5445678;26;20789;-72
2024/04/15 07:55:47;;;;;;;6.23;3.63;;;22.00;70.00;;;;;;5447067;26;20287;-73
2024/04/15 07:58:14;;;;;;;6.13;3.80;;;21.90;70.70;;;;;;5450951;26;20232;-72
2024/04/15 08:00:43;;;;;;;7.10;3.43;;;21.80;71.20;;;;;;5451269;26;20714;-73
2024/04/15 08:03:11;;;;;;;7.37;4.60;;;21.80;71.90;;;;;;5449505;26;20682;-73
2024/04/15 08:05:38;;;;;;;9.20;3.70;;;21.80;72.10;;;;;;5450389;26;20353;-73
2024/04/15 08:08:07;;;;;;;6.63;3.43;;;21.70;72.40;;;;;;5451040;26;20710;-74
2024/04/15 08:10:35;;;;;;;8.30;3.80;;;21.70;72.70;;;;;;5445932;26;20838;-73
2024/04/15 08:13:02;;;;;;;5.33;3.53;;;21.70;72.80;;;;;;5449568;26;20283;-71
2024/04/15 08:15:31;;;;;;;8.03;4.53;;;21.60;72.90;;;;;;5451075;26;20224;-72
2024/04/15 08:18:00;;;;;;;8.37;4.53;;;21.50;73.20;;;;;;5450570;26;20281;-73
2024/04/15 08:20:27;;;;;;;9.10;4.17;;;21.50;73.60;;;;;;5441891;26;20236;-74
2024/04/15 08:22:55;;;;;;;10.07;4.23;;;21.40;73.90;;;;;;5447720;26;20292;-75
2024/04/15 08:25:22;;;;;;;7.07;4.17;;;21.40;73.90;;;;;;5444276;26;20241;-74
2024/04/15 08:27:49;;;;;;;6.67;4.50;;;21.30;74.10;;;;;;5450917;26;20265;-72
2024/04/15 08:30:17;;;;;;;11.53;4.87;;;21.30;74.20;;;;;;5446373;26;20569;-73
2024/04/15 08:32:44;;;;;;;10.77;4.43;;;21.30;74.50;;;;;;5449586;26;20228;-73
2024/04/15 08:35:11;;;;;;;6.90;3.93;;;21.30;74.50;;;;;;5445883;26;20252;-74
2024/04/15 08:37:39;;;;;;;11.87;4.67;;;21.20;74.90;;;;;;5449237;26;20283;-73
2024/04/15 08:40:07;;;;;;;8.23;4.40;;;21.20;75.00;;;;;;5449610;26;20602;-72
2024/04/15 08:42:50;;;;;;;8.30;4.10;;;21.20;75.10;;;;;;5449452;26;20718;-72
2024/04/15 08:45:19;;;;;;;7.43;4.07;;;21.20;75.30;;;;;;5448301;26;20228;-72
2024/04/15 08:47:57;;;;;;;5.70;3.80;;;21.10;75.40;;;;;;5448059;26;20248;-72
2024/04/15 08:50:26;;;;;;;10.57;4.30;;;21.00;75.60;;;;;;5450969;26;20232;-72
2024/04/15 08:52:55;;;;;;;10.10;4.27;;;21.00;75.70;;;;;;5447630;26;20279;-72
2024/04/15 08:55:24;;;;;;;7.10;4.40;;;20.90;75.90;;;;;;5446660;26;20793;-73
2024/04/15 08:57:54;;;;;;;9.20;4.80;;;20.90;75.90;;;;;;5446390;26;20236;-72
2024/04/15 09:00:23;;;;;;;11.37;4.47;;;20.80;76.00;;;;;;5438782;26;20258;-74
2024/04/15 09:02:53;;;;;;;11.77;4.23;;;20.80;76.20;;;;;;5446030;26;20271;-73
2024/04/15 09:05:20;;;;;;;6.83;4.10;;;20.80;76.30;;;;;;5450508;26;20641;-73
2024/04/15 09:07:50;;;;;;;8.70;4.30;;;20.80;76.40;;;;;;5450620;26;20231;-73
2024/04/15 09:10:18;;;;;;;6.97;4.30;;;20.70;76.50;;;;;;5453405;26;20302;-74
2024/04/15 09:12:47;;;;;;;10.83;4.47;;;20.70;76.40;;;;;;5453062;26;20224;-72
2024/04/15 09:15:15;;;;;;;10.70;4.60;;;20.70;76.50;;;;;;5454035;26;20639;-73
2024/04/15 09:17:43;;;;;;;9.77;4.50;;;20.60;76.30;;;;;;5451777;26;20319;-72
2024/04/15 09:20:12;;;;;;;10.47;4.50;;;20.60;76.30;;;;;;5454516;26;20320;-72
2024/04/15 09:22:41;;;;;;;6.93;4.00;;;20.50;76.20;;;;;;5453161;26;20348;-72
2024/04/15 09:25:08;;;;;;;10.63;4.30;;;20.50;76.10;;;;;;5440890;26;20236;-72
2024/04/15 09:27:35;;;;;;;13.07;4.53;;;20.40;76.10;;;;;;5450637;26;20232;-73
2024/04/15 09:30:04;;;;;;;10.73;4.80;;;20.30;76.20;;;;;;5452611;26;20340;-73
2024/04/15 09:32:31;;;;;;;10.00;5.17;;;20.40;76.10;;;;;;5452630;26;20341;-71
2024/04/15 09:35:04;;;;;;;9.77;5.17;;;20.30;75.80;;;;;;5452601;26;20764;-72
2024/04/15 09:37:37;;;;;;;9.47;4.30;;;20.30;75.70;;;;;;5451968;26;20328;-73
2024/04/15 09:40:08;;;;;;;8.90;4.13;;;20.30;75.50;;;;;;5446712;26;20236;-73
2024/04/15 09:42:37;;;;;;;7.87;4.30;;;20.30;75.30;;;;;;5450383;26;20751;-73
2024/04/15 09:45:09;;;;;;;6.43;4.27;;;20.20;75.10;;;;;;5450716;26;20240;-70
2024/04/15 09:47:36;;;;;;;5.77;4.23;;;20.20;75.00;;;;;;5452037;26;20235;-72
2024/04/15 09:50:04;;;;;;;9.70;4.47;;;20.20;75.00;;;;;;5451164;26;20232;-72
2024/04/15 09:52:34;;;;;;;6.23;4.57;;;20.20;75.00;;;;;;5452757;26;20340;-72
2024/04/15 09:55:33;;;;;;;10.57;4.10;;;20.10;75.30;;;;;;5449252;26;20248;-72
2024/04/15 09:58:04;;;;;;;8.20;4.67;;;20.10;75.60;;;;;;5451020;26;20323;-73
2024/04/15 10:00:33;;;;;;;7.73;4.40;;;20.10;75.80;;;;;;5452963;26;20243;-71
2024/04/15 10:03:09;;;;;;;11.23;4.90;;;20.10;76.20;;;;;;5452232;26;20275;-71
2024/04/15 10:05:46;;;;;;;10.77;5.13;;;20.10;76.70;;;;;;5453195;26;20557;-72
2024/04/15 10:08:14;;;;;;;12.57;5.37;;;20.00;76.80;;;;;;5446228;26;20236;-72
2024/04/15 10:10:42;;;;;;;9.93;5.30;;;20.00;77.20;;;;;;5448307;26;20232;-72
2024/04/15 10:13:11;;;;;;;12.87;5.53;;;20.00;77.50;;;;;;5448521;26;20667;-72
2024/04/15 10:15:39;;;;;;;12.20;6.53;;;19.90;77.80;;;;;;5450530;26;20247;-72
2024/04/15 10:18:13;;;;;;;14.00;7.23;;;19.80;78.10;;;;;;5443142;26;20331;-72
2024/04/15 10:20:46;;;;;;;15.77;7.80;;;19.90;78.50;;;;;;5444629;26;20294;-72
2024/04/15 10:23:19;;;;;;;17.77;7.90;;;19.80;78.50;;;;;;5441164;26;20275;-72
2024/04/15 10:25:46;;;;;;;16.67;7.67;;;19.70;78.90;;;;;;5432635;26;20439;-72
2024/04/15 10:28:16;;;;;;;17.13;8.80;;;19.60;79.30;;;;;;5441319;26;20283;-72
2024/04/15 10:30:46;;;;;;;15.50;8.23;;;19.50;79.60;;;;;;5436198;26;20277;-73
2024/04/15 10:33:19;;;;;;;12.30;7.13;;;19.50;80.10;;;;;;5441021;26;20638;-71
2024/04/15 10:35:54;;;;;;;21.93;6.73;;;19.40;80.20;;;;;;5445223;26;20818;-73
2024/04/15 10:38:26;;;;;;;18.33;6.17;;;19.40;80.50;;;;;;5445592;26;20227;-73
2024/04/15 10:40:56;;;;;;;13.43;6.23;;;19.30;80.80;;;;;;5440990;26;20283;-73
2024/04/15 10:43:29;;;;;;;14.40;7.23;;;19.40;81.00;;;;;;5445263;26;20236;-73
2024/04/15 10:45:57;;;;;;;14.87;7.87;;;19.30;81.10;;;;;;5447278;26;20548;-73
2024/04/15 10:48:25;;;;;;;11.37;8.27;;;19.30;81.20;;;;;;5493858;25;20523;-73
2024/04/15 10:50:52;;;;;;;11.37;8.27;;;19.30;81.10;;;;;;5437948;26;20251;-72
2024/04/15 10:53:20;;;;;;;15.47;7.97;;;19.30;81.20;;;;;;5446633;26;20399;-73
2024/04/15 10:55:49;;;;;;;11.47;7.77;;;19.30;81.10;;;;;;5433035;26;20237;-73
2024/04/15 10:58:18;;;;;;;10.00;7.40;;;19.20;80.90;;;;;;5452199;26;20235;-73
2024/04/15 11:00:45;;;;;;;10.93;8.60;;;19.20;80.90;;;;;;5451165;26;20279;-74
2024/04/15 11:03:12;;;;;;;11.70;7.90;;;19.20;80.80;;;;;;5448929;26;20287;-73
2024/04/15 11:05:40;;;;;;;11.77;9.00;;;19.20;80.60;;;;;;5451840;26;20259;-72
2024/04/15 11:08:09;;;;;;;10.43;7.27;;;19.20;80.60;;;;;;5451742;26;20870;-73
2024/04/15 11:10:40;;;;;;;10.97;7.03;;;19.20;80.60;;;;;;5451864;26;20231;-73
2024/04/15 11:13:13;;;;;;;8.60;7.70;;;19.20;80.50;;;;;;5452325;26;20236;-73
2024/04/15 11:15:41;;;;;;;9.07;8.20;;;19.20;80.50;;;;;;5452165;26;20228;-73
2024/04/15 11:18:15;;;;;;;13.47;9.43;;;19.10;80.50;;;;;;5447707;26;20280;-72
2024/04/15 11:20:43;;;;;;;13.70;9.27;;;19.10;80.60;;;;;;5451697;26;20231;-72
2024/04/15 11:23:12;;;;;;;9.93;9.00;;;19.10;80.70;;;;;;5452393;26;20658;-73
2024/04/15 11:25:40;;;;;;;12.23;9.97;;;19.00;80.70;;;;;;5452089;26;20352;-74
2024/04/15 11:28:08;;;;;;;17.87;10.00;;;18.90;81.10;;;;;;5446429;26;20338;-72
2024/04/15 11:30:38;;;;;;;12.57;10.63;;;18.90;81.60;;;;;;5450943;26;20332;-73
2024/04/15 11:33:05;;;;;;;13.00;11.60;;;18.80;81.60;;;;;;5449671;26;20332;-73
2024/04/15 11:35:33;;;;;;;13.50;12.20;;;18.80;81.40;;;;;;5452757;26;20707;-73
2024/04/15 11:38:03;;;;;;;13.67;12.33;;;18.80;81.60;;;;;;5451248;26;20228;-73
2024/04/15 11:40:32;;;;;;;15.57;14.27;;;18.80;81.90;;;;;;5436353;26;20263;-73
2024/04/15 11:43:00;;;;;;;19.90;18.00;;;18.70;82.00;;;;;;5448158;26;20251;-73
2024/04/15 11:45:27;;;;;;;20.27;18.57;;;18.70;82.10;;;;;;5450361;26;20669;-73
2024/04/15 11:47:55;;;;;;;21.00;19.20;;;18.70;82.00;;;;;;5449251;26;20228;-73
2024/04/15 11:50:22;;;;;;;28.60;26.63;;;18.70;82.20;;;;;;5449683;26;20236;-72
2024/04/15 11:52:51;;;;;;;31.93;29.73;;;18.60;81.80;;;;;;5437643;26;20244;-72
2024/04/15 11:55:20;;;;;;;38.30;35.80;;;18.60;82.00;;;;;;5451364;26;20638;-73
2024/04/15 11:57:49;;;;;;;42.97;40.07;;;18.60;82.00;;;;;;5443634;26;20378;-73
2024/04/15 12:00:16;;;;;;;45.27;42.47;;;18.50;82.00;;;;;;5440305;26;20232;-72
2024/04/15 12:02:48;;;;;;;47.93;45.00;;;18.50;82.00;;;;;;5438810;26;20353;-73
2024/04/15 12:05:16;;;;;;;50.07;46.80;;;18.40;82.20;;;;;;5438988;26;20233;-74
2024/04/15 12:07:44;;;;;;;55.03;51.33;;;18.40;82.20;;;;;;5440038;26;20229;-72
2024/04/15 12:10:12;;;;;;;58.53;54.67;;;18.30;82.30;;;;;;5429133;26;20233;-72
2024/04/15 12:12:41;;;;;;;57.07;53.77;;;18.30;82.30;;;;;;5435339;26;20244;-73
2024/04/15 12:15:10;;;;;;;61.30;57.83;;;18.30;82.20;;;;;;5440068;26;20236;-73
2024/04/15 12:17:38;;;;;;;68.20;64.20;;;18.30;82.30;;;;;;5437534;26;20232;-72
2024/04/15 12:20:07;;;;;;;63.90;59.93;;;18.20;82.20;;;;;;5439312;26;20256;-73
2024/04/15 12:22:35;;;;;;;64.30;60.30;;;18.20;82.50;;;;;;5438517;26;20244;-75
2024/04/15 12:25:03;;;;;;;65.63;61.67;;;18.20;82.60;;;;;;5445486;26;20278;-73
2024/04/15 12:27:31;;;;;;;62.90;59.30;;;18.10;82.10;;;;;;5438480;26;20284;-73
2024/04/15 12:29:58;;;;;;;63.63;59.70;;;18.00;82.30;;;;;;5447971;26;20331;-72
2024/04/15 12:32:26;;;;;;;65.33;61.53;;;18.00;82.10;;;;;;5449369;26;20371;-72
2024/04/15 12:34:53;;;;;;;61.87;58.17;;;18.00;82.00;;;;;;5450504;26;20285;-74
2024/04/15 12:37:21;;;;;;;58.23;54.70;;;17.90;81.80;;;;;;5451346;26;20224;-72
2024/04/15 12:39:48;;;;;;;62.83;59.03;;;17.90;81.60;;;;;;5444832;26;20365;-75
2024/04/15 12:42:15;;;;;;;63.90;59.83;;;17.90;81.50;;;;;;5451182;26;20243;-74
2024/04/15 12:44:43;;;;;;;62.77;59.10;;;17.90;81.50;;;;;;5451569;26;20278;-72
2024/04/15 12:47:11;;;;;;;60.53;56.57;;;17.80;81.50;;;;;;5443617;26;20233;-74
2024/04/15 12:49:42;;;;;;;57.73;54.07;;;17.80;81.40;;;;;;5444775;26;20283;-73